Time;durP1;ratioP1;P1;durP2;ratioP2;P2;SDS_P1;SDS_P2;PMS_P1;PMS_P2;Temp;Humidity;BMP_temperature;BMP_pressure;BME280_temperature;BME280_humidity;BME280_pressure;Samples;Min_cycle;Max_cycle;Signal;HPM_P1;HPM_P2
2023/08/25 00:00:57;;;;;;;;;;;25.90;43.80;;;25.31;43.33;100689.50;12143704;19;20667;-83
2023/08/25 00:04:58;;;;;;;;;;;25.90;44.00;;;25.29;43.63;100693.34;12142536;19;20282;-83
2023/08/25 00:08:59;;;;;;;;;;;25.90;44.20;;;25.27;43.51;100688.19;12142816;19;19922;-83
2023/08/25 00:13:01;;;;;;;;;;;25.80;44.40;;;25.24;43.25;100679.69;12139950;19;19930;-83
2023/08/25 00:17:03;;;;;;;;;;;25.80;44.30;;;25.19;43.45;100682.09;12139762;19;19946;-82
2023/08/25 00:21:04;;;;;;;;;;;25.70;44.20;;;25.06;43.52;100659.47;12139104;19;19930;-82
2023/08/25 00:25:06;;;;;;;;;;;25.70;44.40;;;25.08;43.71;100669.97;12138350;19;20291;-82
2023/08/25 00:29:07;;;;;;;;;;;25.60;44.40;;;24.90;43.81;100647.09;12141178;19;20728;-83
2023/08/25 00:33:09;;;;;;;;;;;25.60;44.50;;;24.88;43.81;100627.72;12135950;19;20536;-82
2023/08/25 00:37:10;;;;;;;;;;;25.40;44.70;;;24.81;43.85;100624.09;12132409;19;19933;-82
2023/08/25 00:41:11;;;;;;;;;;;25.40;44.70;;;24.70;43.48;100619.19;12133793;19;19915;-82
2023/08/25 00:45:13;;;;;;;;;;;25.30;44.90;;;24.56;43.51;100606.63;12132810;19;20184;-82
2023/08/25 00:49:15;;;;;;;;;;;25.20;44.60;;;24.58;44.05;100610.78;12137896;19;19926;-82
2023/08/25 00:53:17;;;;;;;;;;;25.10;44.80;;;24.59;44.05;100615.09;12135153;19;19934;-82
2023/08/25 00:57:19;;;;;;;;;;;25.10;44.90;;;24.61;44.21;100606.94;12130304;19;19947;-82
2023/08/25 01:01:21;;;;;;;;;;;25.10;45.10;;;24.46;43.97;100586.31;12129234;19;20768;-82
2023/08/25 01:05:23;;;;;;;;;;;25.00;45.20;;;24.45;44.07;100571.34;12132266;19;20179;-82
2023/08/25 01:09:25;;;;;;;;;;;25.00;45.10;;;24.47;44.38;100584.50;12131806;19;19926;-82
2023/08/25 01:13:36;;;;;;;;;;;25.00;45.20;;;24.47;44.43;100589.84;12132037;19;19975;-83
2023/08/25 01:17:53;;;;;;;;;;;24.90;45.00;;;24.45;44.21;100587.34;12131669;19;19914;-82
2023/08/25 01:21:58;;;;;;;;;;;24.90;45.30;;;24.40;44.31;100573.66;12133993;19;19957;-82
2023/08/25 01:26:00;;;;;;;;;;;24.90;45.30;;;24.36;44.35;100563.53;12130983;19;20007;-82
2023/08/25 01:30:02;;;;;;;;;;;24.90;45.30;;;24.33;44.61;100564.75;12133600;19;19915;-83
2023/08/25 01:34:04;;;;;;;;;;;24.90;45.30;;;24.35;44.62;100568.03;12132288;19;19937;-82
2023/08/25 01:38:15;;;;;;;;;;;24.90;45.80;;;24.42;44.77;100584.19;12129663;19;19918;-83
2023/08/25 01:42:17;;;;;;;;;;;24.90;45.50;;;24.39;44.28;100563.19;12135769;19;19926;-82
2023/08/25 01:46:19;;;;;;;;;;;24.90;45.70;;;24.42;44.67;100560.16;12131568;19;19927;-83
2023/08/25 01:50:21;;;;;;;;;;;24.90;45.50;;;24.40;44.79;100546.16;12135325;19;19915;-83
2023/08/25 01:54:24;;;;;;;;;;;24.90;45.50;;;24.41;44.61;100539.78;12132069;19;19933;-83
2023/08/25 01:58:28;;;;;;;;;;;25.00;45.70;;;24.40;44.43;100522.13;12131209;19;19915;-83
2023/08/25 02:02:29;;;;;;;;;;;24.90;45.80;;;24.42;44.82;100523.63;12131806;19;19923;-83
2023/08/25 02:06:32;;;;;;;;;;;24.90;45.80;;;24.29;44.79;100494.84;12131425;19;20276;-83
2023/08/25 02:10:34;;;;;;;;;;;25.00;45.80;;;24.28;44.86;100492.38;12131990;19;19933;-83
2023/08/25 02:14:36;;;;;;;;;;;24.90;45.70;;;24.34;45.10;100507.66;12139640;19;19923;-83
2023/08/25 02:18:37;;;;;;;;;;;24.90;45.90;;;24.37;45.08;100499.28;12146538;19;20767;-83
2023/08/25 02:22:38;;;;;;;;;;;24.90;45.90;;;24.37;44.92;100496.63;12145761;19;19927;-83
2023/08/25 02:26:40;;;;;;;;;;;25.00;45.80;;;24.34;45.12;100490.81;12142464;19;19951;-83
2023/08/25 02:30:43;;;;;;;;;;;24.90;46.00;;;24.34;44.99;100480.97;12145133;19;19933;-83
2023/08/25 02:34:44;;;;;;;;;;;24.90;45.80;;;24.28;45.12;100469.19;12141957;19;20010;-83
2023/08/25 02:38:46;;;;;;;;;;;24.90;46.10;;;24.34;44.92;100474.81;12142397;19;20884;-83
2023/08/25 02:42:47;;;;;;;;;;;24.90;46.30;;;24.36;45.19;100468.28;12142084;19;19934;-83
2023/08/25 02:46:50;;;;;;;;;;;24.90;46.60;;;24.29;44.97;100449.47;12139187;19;20184;-83
2023/08/25 02:50:51;;;;;;;;;;;24.90;46.40;;;24.29;45.26;100441.47;12140579;19;19933;-83
2023/08/25 02:54:53;;;;;;;;;;;24.90;46.30;;;24.39;45.46;100451.09;12140599;19;20192;-84
2023/08/25 02:58:55;;;;;;;;;;;25.00;46.60;;;24.42;45.10;100450.72;12141373;19;19927;-84
2023/08/25 03:02:57;;;;;;;;;;;25.00;46.70;;;24.40;45.43;100436.72;12141872;19;19951;-83
2023/08/25 03:06:58;;;;;;;;;;;25.00;46.30;;;24.33;45.19;100425.09;12139894;19;19930;-83
2023/08/25 03:11:03;;;;;;;;;;;25.00;47.10;;;24.39;45.38;100440.41;12142296;19;20200;-83
2023/08/25 03:15:06;;;;;;;;;;;25.00;46.50;;;24.45;45.16;100445.03;12142003;19;20739;-83
2023/08/25 03:19:07;;;;;;;;;;;25.00;46.30;;;24.45;45.59;100429.03;12141932;19;19929;-83
2023/08/25 03:23:09;;;;;;;;;;;25.00;46.40;;;24.48;45.28;100434.81;12141512;19;20293;-83
2023/08/25 03:27:11;;;;;;;;;;;25.10;46.60;;;24.33;45.40;100417.09;12139576;19;19919;-83
2023/08/25 03:31:13;;;;;;;;;;;25.10;46.20;;;24.51;45.29;100452.31;12141003;19;20010;-83
2023/08/25 03:35:14;;;;;;;;;;;25.10;46.20;;;24.53;45.39;100468.97;12139736;19;20448;-83
2023/08/25 03:39:16;;;;;;;;;;;25.10;46.10;;;24.52;45.74;100467.34;12140542;19;20208;-84
2023/08/25 03:43:18;;;;;;;;;;;25.10;46.00;;;24.49;45.49;100467.66;12139438;19;19929;-83
2023/08/25 03:47:19;;;;;;;;;;;25.10;46.00;;;24.55;45.87;100464.28;12137281;19;19922;-83
2023/08/25 03:51:21;;;;;;;;;;;25.10;46.00;;;24.55;45.60;100463.44;12142747;19;19915;-84
2023/08/25 03:55:23;;;;;;;;;;;25.10;46.20;;;24.52;45.82;100462.00;12140623;19;20177;-84
2023/08/25 03:59:24;;;;;;;;;;;25.10;46.00;;;24.41;45.87;100443.69;12139966;19;19923;-84
2023/08/25 04:03:25;;;;;;;;;;;25.10;46.00;;;24.32;45.82;100434.13;12141154;19;19922;-84
2023/08/25 04:07:27;;;;;;;;;;;25.10;46.10;;;24.14;45.74;100416.63;12136956;19;19926;-84
2023/08/25 04:11:28;;;;;;;;;;;25.10;46.00;;;24.37;45.87;100459.25;12141148;19;20077;-84
2023/08/25 04:15:30;;;;;;;;;;;25.00;46.10;;;24.37;45.78;100458.44;12140330;19;20207;-84
2023/08/25 04:19:32;;;;;;;;;;;25.00;46.10;;;24.37;45.78;100464.59;12141674;19;20002;-83
2023/08/25 04:23:35;;;;;;;;;;;25.00;46.10;;;24.39;45.91;100467.09;12144339;19;19929;-84
2023/08/25 04:27:37;;;;;;;;;;;25.00;46.20;;;24.34;45.85;100466.81;12137174;19;19922;-84
2023/08/25 04:31:39;;;;;;;;;;;24.90;46.20;;;24.29;45.76;100460.16;12139882;19;20360;-84
2023/08/25 04:35:41;;;;;;;;;;;24.90;46.30;;;24.21;46.11;100465.56;12144622;19;20654;-84
2023/08/25 04:39:43;;;;;;;;;;;24.80;46.10;;;24.18;45.89;100462.44;12146046;19;20011;-84
2023/08/25 04:43:44;;;;;;;;;;;24.80;46.20;;;24.15;45.85;100479.63;12144006;19;20399;-84
2023/08/25 04:47:46;;;;;;;;;;;24.70;46.30;;;24.03;46.12;100446.38;12141389;19;19926;-84
2023/08/25 04:51:48;;;;;;;;;;;24.70;46.40;;;24.14;45.96;100458.44;12149385;19;19951;-85
2023/08/25 04:55:50;;;;;;;;;;;24.70;46.40;;;24.08;45.71;100468.00;12144352;19;19922;-84
2023/08/25 04:59:52;;;;;;;;;;;24.70;46.50;;;23.99;46.18;100450.44;12142136;19;19915;-84
2023/08/25 05:03:55;;;;;;;;;;;24.60;46.60;;;24.06;46.09;100467.34;12143782;19;19931;-84
2023/08/25 05:07:57;;;;;;;;;;;24.60;46.60;;;24.07;46.00;100474.38;12143682;19;20448;-84
2023/08/25 05:11:58;;;;;;;;;;;24.60;46.60;;;24.07;46.09;100456.50;12143623;19;19919;-84
2023/08/25 05:16:00;;;;;;;;;;;24.60;46.80;;;24.06;46.02;100446.00;12145534;19;19926;-84
2023/08/25 05:20:22;;;;;;;;;;;24.60;46.70;;;24.00;46.37;100428.06;12151709;19;19972;-84
2023/08/25 05:24:26;;;;;;;;;;;24.70;46.80;;;24.03;46.08;100428.56;12155619;19;20184;-83
2023/08/25 05:28:29;;;;;;;;;;;24.70;46.80;;;23.90;46.48;100408.81;12154356;19;20370;-84
2023/08/25 05:32:32;;;;;;;;;;;24.70;47.10;;;24.14;46.25;100453.13;12157340;19;20299;-84
2023/08/25 05:37:03;;;;;;;;;;;24.70;47.00;;;24.15;46.59;100449.47;12136292;19;20296;-83
2023/08/25 05:41:05;;;;;;;;;;;24.70;47.00;;;24.16;46.51;100446.59;12142091;19;19927;-84
2023/08/25 05:45:07;;;;;;;;;;;24.70;47.10;;;24.04;46.61;100416.88;12144358;19;19925;-84
2023/08/25 05:49:08;;;;;;;;;;;24.80;47.20;;;24.16;46.70;100425.25;12158972;19;19922;-83
2023/08/25 05:53:10;;;;;;;;;;;24.80;47.20;;;24.17;46.49;100421.59;12163751;19;19911;-83
2023/08/25 05:57:12;;;;;;;;;;;24.80;47.50;;;24.21;46.82;100416.72;12150677;19;19919;-85
2023/08/25 06:01:14;;;;;;;;;;;24.90;47.40;;;24.35;46.60;100429.25;12161438;19;19970;-84
2023/08/25 06:05:16;;;;;;;;;;;24.90;47.70;;;24.34;46.72;100416.91;12155904;19;19915;-84
2023/08/25 06:09:17;;;;;;;;;;;25.00;47.70;;;24.10;47.00;100359.28;12160531;19;20731;-83
2023/08/25 06:13:19;;;;;;;;;;;25.10;47.80;;;24.41;46.80;100395.66;12156504;19;20462;-84
2023/08/25 06:17:21;;;;;;;;;;;25.20;47.80;;;24.71;46.67;100424.06;12153702;19;19933;-82
2023/08/25 06:21:22;;;;;;;;;;;25.30;48.00;;;24.88;47.05;100426.53;12144219;19;20581;-82
2023/08/25 06:25:24;;;;;;;;;;;25.50;47.70;;;24.85;47.16;100409.03;12146763;19;20296;-81
2023/08/25 06:29:26;;;;;;;;;;;25.60;47.60;;;25.03;47.18;100415.81;12149903;19;20383;-81
2023/08/25 06:33:29;;;;;;;;;;;25.80;48.00;;;25.16;46.98;100422.19;12148556;19;20722;-82
2023/08/25 06:37:31;;;;;;;;;;;25.90;47.60;;;25.28;47.03;100424.41;12138808;19;19929;-82
2023/08/25 06:41:32;;;;;;;;;;;26.00;47.50;;;25.31;47.00;100424.00;12150418;19;20651;-82
2023/08/25 06:45:42;;;;;;;;;;;26.10;47.30;;;25.44;47.22;100425.97;12152544;19;20650;-82
2023/08/25 06:49:43;;;;;;;;;;;26.20;47.40;;;25.26;47.23;100386.31;12152836;19;19923;-82
2023/08/25 06:53:45;;;;;;;;;;;26.20;47.20;;;25.56;47.21;100427.16;12150669;19;19930;-81
2023/08/25 06:57:49;;;;;;;;;;;26.30;47.40;;;25.62;47.02;100423.72;12145400;19;19930;-83
2023/08/25 07:01:50;;;;;;;;;;;26.40;47.50;;;25.64;46.99;100413.66;12141756;19;20394;-82
2023/08/25 07:05:57;;;;;;;;;;;26.50;47.10;;;25.75;46.73;100431.03;12146052;19;19915;-82
2023/08/25 07:09:59;;;;;;;;;;;26.50;47.00;;;25.73;47.28;100406.31;12146807;19;19946;-82
2023/08/25 07:14:00;;;;;;;;;;;26.60;47.10;;;25.88;46.87;100420.50;12143896;19;19922;-82
2023/08/25 07:18:03;;;;;;;;;;;26.60;46.90;;;25.93;46.76;100417.25;12142610;19;19923;-82
2023/08/25 07:22:05;;;;;;;;;;;26.70;47.00;;;25.78;47.15;100387.84;12137604;19;19923;-80
2023/08/25 07:26:06;;;;;;;;;;;26.80;47.00;;;26.07;47.11;100418.19;12143915;19;20296;-81
2023/08/25 07:30:08;;;;;;;;;;;26.80;47.10;;;26.09;47.13;100406.28;12141143;19;19927;-80
2023/08/25 07:34:10;;;;;;;;;;;27.00;47.10;;;26.21;47.34;100406.56;12141895;19;19915;-80
2023/08/25 07:38:12;;;;;;;;;;;27.10;47.20;;;26.39;46.92;100417.59;12142217;19;19919;-80
2023/08/25 07:42:14;;;;;;;;;;;27.20;47.30;;;26.56;47.18;100428.03;12142270;19;19946;-82
2023/08/25 07:46:15;;;;;;;;;;;27.30;47.30;;;26.69;47.20;100425.44;12140433;19;19910;-84
2023/08/25 07:50:17;;;;;;;;;;;27.50;47.30;;;26.58;47.47;100385.81;12139728;19;20592;-84
2023/08/25 07:54:18;;;;;;;;;;;27.70;47.30;;;26.99;47.18;100438.56;12140397;19;20217;-83
2023/08/25 07:58:21;;;;;;;;;;;27.90;47.40;;;27.23;47.25;100451.47;12137535;19;20169;-82
2023/08/25 08:02:25;;;;;;;;;;;28.10;47.50;;;27.46;47.29;100450.31;12139302;19;19926;-83
2023/08/25 08:06:27;;;;;;;;;;;28.30;47.40;;;27.61;47.25;100461.72;12135587;19;19927;-83
2023/08/25 08:10:29;;;;;;;;;;;28.50;47.20;;;27.77;47.66;100455.13;12135549;19;21045;-83
2023/08/25 08:14:35;;;;;;;;;;;28.70;47.10;;;27.94;46.98;100458.28;12134436;19;20020;-83
2023/08/25 08:18:36;;;;;;;;;;;28.80;47.10;;;28.10;47.28;100468.59;12135947;19;20307;-83
2023/08/25 08:22:40;;;;;;;;;;;29.10;47.10;;;28.32;47.37;100487.19;12132226;19;19923;-83
2023/08/25 08:26:43;;;;;;;;;;;29.20;46.90;;;28.48;47.19;100475.25;12131510;19;20728;-83
2023/08/25 08:30:44;;;;;;;;;;;29.40;46.80;;;28.39;47.17;100435.13;12129616;19;19929;-83
2023/08/25 08:34:56;;;;;;;;;;;29.60;46.90;;;28.78;47.19;100480.97;12179674;19;20352;-82
2023/08/25 08:38:58;;;;;;;;;;;29.80;46.60;;;28.89;47.03;100489.22;12188550;19;20199;-83
2023/08/25 08:43:03;;;;;;;;;;;29.90;46.40;;;29.04;47.13;100478.25;12186090;19;19927;-81
2023/08/25 08:47:05;;;;;;;;;;;30.00;46.30;;;29.15;46.72;100470.56;12184820;19;20243;-82
2023/08/25 08:51:08;;;;;;;;;;;30.00;46.30;;;29.30;47.03;100477.31;12183547;19;20268;-82
2023/08/25 08:55:10;;;;;;;;;;;30.30;46.40;;;29.40;46.88;100476.84;12184402;19;20764;-82
2023/08/25 08:59:11;;;;;;;;;;;30.50;46.20;;;29.65;46.98;100486.88;12180646;19;20022;-81
2023/08/25 09:03:18;;;;;;;;;;;30.60;46.40;;;29.75;47.04;100471.09;12184758;19;19930;-82
2023/08/25 09:07:22;;;;;;;;;;;30.70;46.20;;;29.87;46.49;100476.63;12174947;19;20377;-81
2023/08/25 09:11:23;;;;;;;;;;;30.90;45.60;;;30.04;46.52;100479.59;12178008;19;19926;-82
2023/08/25 09:15:26;;;;;;;;;;;31.00;45.50;;;30.14;46.62;100485.31;12179498;19;20375;-81
2023/08/25 09:19:30;;;;;;;;;;;31.10;45.60;;;30.22;46.41;100471.56;12184843;19;19931;-82
2023/08/25 09:23:32;;;;;;;;;;;31.20;45.30;;;30.29;45.97;100476.91;12183160;19;19933;-81
2023/08/25 09:27:34;;;;;;;;;;;31.30;45.50;;;30.33;46.12;100483.53;12173514;19;20376;-82
2023/08/25 09:31:36;;;;;;;;;;;31.30;44.80;;;30.37;46.12;100487.41;12178582;19;19931;-81
2023/08/25 09:35:38;;;;;;;;;;;31.30;45.20;;;30.45;45.86;100491.72;12179816;19;20359;-81
2023/08/25 09:39:43;;;;;;;;;;;31.40;45.40;;;30.57;46.03;100495.31;12178993;19;19929;-81
2023/08/25 09:43:45;;;;;;;;;;;31.50;45.10;;;30.75;45.79;100506.13;12164653;19;19926;-82
2023/08/25 09:47:46;;;;;;;;;;;31.60;45.50;;;30.82;45.73;100496.13;12129860;19;19949;-82
2023/08/25 09:51:50;;;;;;;;;;;31.80;45.30;;;30.95;46.02;100502.44;12132072;19;19930;-82
2023/08/25 09:55:59;;;;;;;;;;;31.80;45.50;;;31.08;46.23;100518.44;12132940;19;20306;-82
2023/08/25 10:00:04;;;;;;;;;;;32.00;45.20;;;31.16;45.69;100514.63;12136175;19;19926;-82
2023/08/25 10:04:13;;;;;;;;;;;32.10;45.10;;;31.23;45.42;100516.19;12134380;19;19923;-82
2023/08/25 10:08:16;;;;;;;;;;;32.10;43.90;;;31.21;45.36;100510.19;12134604;19;19943;-82
2023/08/25 10:12:19;;;;;;;;;;;32.10;44.40;;;31.23;45.61;100499.19;12135870;19;20245;-82
2023/08/25 10:16:22;;;;;;;;;;;32.20;43.60;;;31.33;45.22;100515.69;12132480;19;19927;-82
2023/08/25 10:20:24;;;;;;;;;;;32.20;44.60;;;31.33;45.22;100512.97;12135548;19;19915;-82
2023/08/25 10:24:28;;;;;;;;;;;32.20;44.60;;;31.42;45.39;100519.72;12135789;19;19946;-82
2023/08/25 10:28:30;;;;;;;;;;;32.20;42.80;;;31.42;45.16;100516.22;12134270;19;20308;-83
2023/08/25 10:32:53;;;;;;;;;;;32.20;44.10;;;31.44;44.70;100523.03;12132729;19;20006;-82
2023/08/25 10:37:12;;;;;;;;;;;32.20;44.30;;;31.36;45.06;100507.13;12133286;19;19950;-82
2023/08/25 10:41:18;;;;;;;;;;;32.20;44.30;;;31.47;44.83;100527.97;12141787;19;20202;-83
2023/08/25 10:45:21;;;;;;;;;;;32.20;44.40;;;31.46;44.52;100526.34;12145456;19;19923;-83
2023/08/25 10:49:23;;;;;;;;;;;32.30;44.50;;;31.42;44.70;100513.50;12145809;19;19931;-81
2023/08/25 10:53:35;;;;;;;;;;;32.30;44.50;;;31.52;44.51;100521.91;12144751;19;19942;-82
2023/08/25 10:57:37;;;;;;;;;;;32.30;44.50;;;31.60;44.50;100531.56;12138006;19;19931;-83
2023/08/25 11:01:38;;;;;;;;;;;32.30;44.40;;;31.61;44.61;100539.41;12147833;19;20005;-83
2023/08/25 11:05:43;;;;;;;;;;;32.30;44.50;;;31.61;44.59;100535.91;12143780;19;19926;-82
2023/08/25 11:09:45;;;;;;;;;;;32.30;44.40;;;31.56;44.63;100528.47;12144317;19;20015;-82
2023/08/25 11:13:46;;;;;;;;;;;32.30;44.30;;;31.58;44.71;100526.38;12143093;19;19935;-81
2023/08/25 11:17:48;;;;;;;;;;;32.30;44.30;;;31.56;44.55;100514.16;12144355;19;20636;-82
2023/08/25 11:22:01;;;;;;;;;;;32.30;44.40;;;31.63;44.53;100521.13;12145847;19;21073;-82
2023/08/25 11:26:02;;;;;;;;;;;32.30;44.40;;;31.64;44.52;100511.97;12150465;19;20174;-83
2023/08/25 11:30:08;;;;;;;;;;;32.30;43.80;;;31.63;44.15;100526.53;12155551;19;19937;-83
2023/08/25 11:34:10;;;;;;;;;;;32.30;44.20;;;31.64;43.96;100525.47;12147323;19;19937;-82
2023/08/25 11:38:14;;;;;;;;;;;32.30;44.20;;;31.65;44.02;100526.28;12148293;19;19919;-83
2023/08/25 11:42:20;;;;;;;;;;;32.30;44.30;;;31.63;44.37;100523.81;12152792;19;19918;-83
2023/08/25 11:46:22;;;;;;;;;;;32.30;44.40;;;31.70;43.96;100521.00;12147187;19;19922;-82
2023/08/25 11:50:24;;;;;;;;;;;32.30;44.10;;;31.75;44.19;100516.56;12152328;19;19926;-83
2023/08/25 11:54:26;;;;;;;;;;;32.40;43.70;;;31.81;43.76;100514.84;12150590;19;20731;-82
2023/08/25 11:58:31;;;;;;;;;;;32.40;44.00;;;31.87;44.03;100521.22;12146641;19;20194;-84
2023/08/25 12:02:33;;;;;;;;;;;32.50;44.10;;;31.93;43.80;100525.72;12151919;19;19942;-83
2023/08/25 12:06:35;;;;;;;;;;;32.50;43.80;;;31.95;43.76;100523.63;12143827;19;20255;-82
2023/08/25 12:10:38;;;;;;;;;;;32.60;43.70;;;31.90;43.55;100507.25;12142737;19;20010;-82
2023/08/25 12:14:40;;;;;;;;;;;32.60;43.70;;;31.99;44.11;100519.38;12137309;19;19927;-83
2023/08/25 12:18:42;;;;;;;;;;;32.60;43.60;;;32.04;43.61;100522.22;12143711;19;19942;-82
2023/08/25 12:22:54;;;;;;;;;;;32.70;44.00;;;32.03;43.71;100531.38;12142755;19;19950;-83
2023/08/25 12:26:55;;;;;;;;;;;32.70;43.80;;;32.08;43.73;100538.78;12142266;19;20267;-82
2023/08/25 12:30:56;;;;;;;;;;;32.70;44.00;;;32.14;43.69;100538.69;12139786;19;20727;-83
2023/08/25 12:34:58;;;;;;;;;;;32.70;44.00;;;32.17;43.93;100537.41;12129628;19;19923;-82
2023/08/25 12:38:59;;;;;;;;;;;32.80;44.00;;;32.21;43.52;100548.56;12141702;19;19955;-82
2023/08/25 12:43:01;;;;;;;;;;;32.80;44.00;;;32.23;43.65;100552.69;12145373;19;19982;-82
2023/08/25 12:47:02;;;;;;;;;;;32.80;43.80;;;32.20;43.67;100542.34;12142914;19;19919;-82
2023/08/25 12:51:04;;;;;;;;;;;32.80;43.80;;;32.21;43.30;100535.88;12142568;19;19930;-82
2023/08/25 12:55:10;;;;;;;;;;;32.80;43.90;;;32.12;43.51;100521.88;12142209;19;19930;-81
2023/08/25 12:59:11;;;;;;;;;;;32.80;43.90;;;32.19;43.10;100538.00;12145564;19;19918;-83
2023/08/25 13:03:12;;;;;;;;;;;32.80;43.80;;;32.15;43.33;100518.72;12147385;19;20277;-81
2023/08/25 13:07:14;;;;;;;;;;;32.80;43.70;;;32.10;43.21;100523.97;12141184;19;20803;-83
2023/08/25 13:11:16;;;;;;;;;;;32.70;43.70;;;32.03;42.97;100530.53;12143046;19;20272;-83
2023/08/25 13:15:17;;;;;;;;;;;32.60;43.80;;;32.05;42.98;100550.06;12142232;19;19926;-81
2023/08/25 13:19:18;;;;;;;;;;;32.60;43.40;;;31.93;43.27;100553.53;12148593;19;19939;-82
2023/08/25 13:23:20;;;;;;;;;;;32.50;43.40;;;31.89;43.02;100559.59;12153338;19;19922;-81
2023/08/25 13:27:22;;;;;;;;;;;32.40;43.30;;;31.81;43.20;100555.38;12151935;19;20022;-81
2023/08/25 13:31:24;;;;;;;;;;;32.30;43.50;;;31.69;42.94;100563.41;12156915;19;19944;-81
2023/08/25 13:35:25;;;;;;;;;;;32.30;43.80;;;31.56;42.76;100563.56;12154815;19;20727;-82
2023/08/25 13:39:27;;;;;;;;;;;32.10;44.00;;;31.47;43.26;100568.47;12158690;19;19927;-81
2023/08/25 13:43:31;;;;;;;;;;;32.00;44.30;;;31.34;43.09;100563.19;12155605;19;20273;-81
2023/08/25 13:47:32;;;;;;;;;;;31.80;44.40;;;31.29;42.96;100565.75;12148470;19;19922;-81
2023/08/25 13:51:34;;;;;;;;;;;31.70;44.50;;;31.23;43.30;100563.97;12153711;19;19938;-81
2023/08/25 13:55:36;;;;;;;;;;;31.60;44.60;;;31.13;43.13;100561.75;12152193;19;19946;-81
2023/08/25 13:59:37;;;;;;;;;;;31.50;44.80;;;31.03;43.20;100565.00;12151725;19;19919;-81
2023/08/25 14:03:39;;;;;;;;;;;31.40;44.90;;;31.03;42.99;100553.41;12154742;19;19930;-81
2023/08/25 14:07:40;;;;;;;;;;;31.40;45.70;;;30.96;43.38;100547.22;12149253;19;19923;-80
2023/08/25 14:11:42;;;;;;;;;;;31.30;45.40;;;30.89;43.17;100551.88;12152228;19;19922;-81
2023/08/25 14:15:45;;;;;;;;;;;31.20;45.40;;;30.81;43.40;100543.03;12150432;19;19919;-81
2023/08/25 14:19:46;;;;;;;;;;;31.10;45.30;;;30.77;43.23;100511.31;12148227;19;19934;-81
2023/08/25 14:23:48;;;;;;;;;;;31.10;45.50;;;30.67;43.31;100490.22;12155564;19;19978;-81
2023/08/25 14:27:49;;;;;;;;;;;31.00;45.40;;;30.59;43.25;100493.22;12141188;19;19930;-82
2023/08/25 14:31:51;;;;;;;;;;;30.90;45.20;;;30.54;43.37;100491.22;12135913;19;19922;-81
2023/08/25 14:35:52;;;;;;;;;;;30.80;45.30;;;30.51;43.69;100483.53;12136347;19;20263;-81
2023/08/25 14:39:54;;;;;;;;;;;30.80;45.40;;;30.43;43.10;100478.44;12135735;19;20003;-82
2023/08/25 14:43:55;;;;;;;;;;;30.70;45.50;;;30.43;43.29;100479.28;12146060;19;19919;-82
2023/08/25 14:47:57;;;;;;;;;;;30.70;45.50;;;30.42;43.31;100483.00;12134429;19;19914;-81
2023/08/25 14:51:58;;;;;;;;;;;30.70;45.50;;;30.32;43.44;100471.91;12139551;19;19926;-81
2023/08/25 14:56:00;;;;;;;;;;;30.60;45.50;;;30.26;43.50;100477.38;12157003;19;19999;-84
2023/08/25 15:00:03;;;;;;;;;;;30.60;45.80;;;30.41;43.82;100488.66;12163562;19;19926;-82
2023/08/25 15:04:04;;;;;;;;;;;30.60;46.10;;;30.40;43.49;100460.84;12135000;19;20284;-81
2023/08/25 15:08:06;;;;;;;;;;;30.60;45.80;;;30.35;43.54;100439.16;12132266;19;19934;-81
2023/08/25 15:12:07;;;;;;;;;;;30.60;46.10;;;30.31;43.67;100435.25;12136274;19;19919;-81
2023/08/25 15:16:09;;;;;;;;;;;30.60;45.90;;;30.33;43.67;100449.31;12135119;19;19934;-82
2023/08/25 15:20:11;;;;;;;;;;;30.60;45.90;;;30.28;43.95;100442.94;12137239;19;19930;-83
2023/08/25 15:24:13;;;;;;;;;;;30.60;46.10;;;30.26;44.09;100447.72;12138584;19;20751;-82
2023/08/25 15:28:14;;;;;;;;;;;30.60;46.00;;;30.23;44.09;100429.31;12133504;19;20711;-82
2023/08/25 15:32:16;;;;;;;;;;;30.60;46.20;;;30.22;44.01;100439.25;12129647;19;19931;-82
2023/08/25 15:36:18;;;;;;;;;;;30.50;46.20;;;30.28;43.92;100454.53;12127483;19;20707;-82
2023/08/25 15:40:21;;;;;;;;;;;30.60;46.20;;;30.23;43.92;100449.00;12135254;19;19947;-82
2023/08/25 15:44:22;;;;;;;;;;;30.60;46.30;;;30.25;44.03;100444.22;12133489;19;19923;-82
2023/08/25 15:48:24;;;;;;;;;;;30.60;46.40;;;30.21;44.15;100448.34;12125455;19;19932;-82
2023/08/25 15:52:26;;;;;;;;;;;30.60;46.20;;;30.26;43.88;100455.81;12129404;19;20702;-82
2023/08/25 15:56:27;;;;;;;;;;;30.50;46.20;;;30.20;44.13;100454.78;12126484;19;19927;-82
2023/08/25 16:00:29;;;;;;;;;;;30.60;46.30;;;30.24;44.35;100480.28;12127773;19;19957;-81
2023/08/25 16:04:30;;;;;;;;;;;30.60;46.40;;;30.23;44.34;100470.56;12131057;19;19948;-82
2023/08/25 16:08:32;;;;;;;;;;;30.50;46.40;;;30.20;44.43;100461.00;12130549;19;19923;-82
2023/08/25 16:12:34;;;;;;;;;;;30.50;46.50;;;30.13;44.30;100457.53;12136250;19;19998;-83
2023/08/25 16:16:36;;;;;;;;;;;30.50;46.60;;;30.07;44.14;100450.34;12136722;19;20715;-82
2023/08/25 16:20:39;;;;;;;;;;;30.40;46.90;;;29.95;44.01;100452.94;12128910;19;20359;-81
2023/08/25 16:24:40;;;;;;;;;;;30.30;46.70;;;29.98;44.51;100455.19;12127260;19;19923;-82
2023/08/25 16:28:42;;;;;;;;;;;30.30;46.80;;;29.96;44.37;100446.50;12129014;19;20775;-82
2023/08/25 16:32:44;;;;;;;;;;;30.20;46.90;;;29.92;44.36;100439.91;12118908;19;20290;-82
2023/08/25 16:36:46;;;;;;;;;;;30.20;46.90;;;29.90;44.49;100442.00;12131200;19;20282;-83
2023/08/25 16:40:47;;;;;;;;;;;30.20;47.30;;;29.87;44.74;100447.00;12138568;19;20293;-82
2023/08/25 16:44:49;;;;;;;;;;;30.20;47.30;;;29.85;44.84;100452.59;12134051;19;19930;-82
2023/08/25 16:48:50;;;;;;;;;;;30.10;47.20;;;29.61;44.88;100402.22;12138050;19;20758;-82
2023/08/25 16:52:52;;;;;;;;;;;30.10;47.50;;;29.66;44.50;100411.31;12137278;19;19926;-82
2023/08/25 16:56:54;;;;;;;;;;;30.10;47.90;;;29.39;44.77;100374.84;12145400;19;20901;-82
2023/08/25 17:00:56;;;;;;;;;;;30.00;48.40;;;29.45;44.81;100396.31;12152144;19;20271;-83
2023/08/25 17:05:01;;;;;;;;;;;29.90;47.40;;;29.47;45.01;100402.28;12159083;19;19931;-83
2023/08/25 17:09:03;;;;;;;;;;;29.80;47.50;;;29.50;44.75;100404.56;12147906;19;20196;-83
2023/08/25 17:13:04;;;;;;;;;;;29.80;47.50;;;29.43;45.06;100387.63;12142944;19;19927;-83
2023/08/25 17:17:06;;;;;;;;;;;29.80;47.90;;;29.39;45.03;100378.34;12145231;19;19919;-83
2023/08/25 17:21:07;;;;;;;;;;;29.70;47.40;;;29.36;44.90;100378.78;12145450;19;20282;-84
2023/08/25 17:25:09;;;;;;;;;;;29.70;47.70;;;29.34;45.20;100368.22;12148090;19;20440;-83
2023/08/25 17:29:11;;;;;;;;;;;29.60;47.50;;;29.26;44.98;100379.25;12146888;19;19941;-84
2023/08/25 17:33:12;;;;;;;;;;;29.60;47.50;;;29.24;45.13;100377.81;12143415;19;20292;-83
2023/08/25 17:37:14;;;;;;;;;;;29.50;47.60;;;29.24;45.38;100383.19;12142500;19;20255;-83
2023/08/25 17:41:15;;;;;;;;;;;29.50;47.60;;;29.13;45.47;100370.44;12148476;19;19927;-83
2023/08/25 17:45:17;;;;;;;;;;;29.40;47.60;;;28.93;45.00;100346.31;12143168;19;19929;-83
2023/08/25 17:49:19;;;;;;;;;;;29.40;47.50;;;29.14;44.95;100405.19;12146738;19;19919;-83
2023/08/25 17:53:21;;;;;;;;;;;29.40;47.50;;;29.08;45.36;100400.66;12144309;19;20371;-83
2023/08/25 17:57:23;;;;;;;;;;;29.40;47.70;;;29.13;45.27;100413.47;12145003;19;19923;-84
2023/08/25 18:01:25;;;;;;;;;;;29.40;47.60;;;29.13;45.08;100427.72;12143626;19;19927;-83
2023/08/25 18:05:29;;;;;;;;;;;29.40;47.60;;;29.06;45.65;100429.63;12143029;19;19915;-83
2023/08/25 18:09:31;;;;;;;;;;;29.40;47.60;;;29.05;45.22;100423.41;12141746;19;19946;-83